Time;durP1;ratioP1;P1;durP2;ratioP2;P2;SDS_P1;SDS_P2;PMS_P1;PMS_P2;Temp;Humidity;BMP_temperature;BMP_pressure;BME280_temperature;BME280_humidity;BME280_pressure;Samples;Min_cycle;Max_cycle;Signal;HPM_P1;HPM_P2
2023/12/29 00:00:15;;;;;;;7.53;1.93;;;;;;;6.17;100.00;100725.09;5089818;28;20228;-81
2023/12/29 00:02:42;;;;;;;1.73;1.73;;;;;;;5.99;100.00;100704.59;5091253;28;20198;-83
2023/12/29 00:05:10;;;;;;;2.67;1.53;;;;;;;5.66;100.00;100638.81;5096453;28;20691;-83
2023/12/29 00:07:37;;;;;;;2.17;2.07;;;;;;;6.08;100.00;100727.31;5089001;28;20247;-85
2023/12/29 00:10:04;;;;;;;1.03;1.03;;;;;;;6.14;100.00;100724.97;5097952;28;20233;-84
2023/12/29 00:12:31;;;;;;;1.10;1.10;;;;;;;6.10;100.00;100715.38;5048988;28;20191;-86
2023/12/29 00:14:58;;;;;;;0.90;0.90;;;;;;;6.15;100.00;100725.88;5087207;28;20213;-86
2023/12/29 00:17:25;;;;;;;1.50;1.50;;;;;;;6.31;100.00;100710.28;5090706;28;20198;-84
2023/12/29 00:19:53;;;;;;;2.70;2.60;;;;;;;6.47;100.00;100713.53;5093765;28;20202;-84
2023/12/29 00:22:21;;;;;;;1.53;1.43;;;;;;;6.68;100.00;100713.53;5091070;28;20757;-85
2023/12/29 00:24:48;;;;;;;1.37;1.37;;;;;;;6.73;100.00;100719.75;5091634;28;20199;-85
2023/12/29 00:27:15;;;;;;;1.17;1.17;;;;;;;6.71;100.00;100721.38;5092174;28;20201;-84
2023/12/29 00:29:44;;;;;;;0.87;0.87;;;;;;;6.71;100.00;100728.22;5091157;28;20600;-85
2023/12/29 00:32:11;;;;;;;2.50;1.33;;;;;;;6.58;100.00;100744.00;5038674;28;20616;-85
2023/12/29 00:34:38;;;;;;;2.47;2.37;;;;;;;6.46;100.00;100736.63;5092730;28;20662;-85
2023/12/29 00:37:08;;;;;;;1.63;1.40;;;;;;;6.30;100.00;100727.41;5054975;28;20197;-85
2023/12/29 00:39:38;;;;;;;1.20;1.20;;;;;;;6.42;100.00;100750.22;5086145;28;20684;-85
2023/12/29 00:42:05;;;;;;;1.53;1.53;;;;;;;6.10;100.00;100730.81;5098028;28;20217;-83
2023/12/29 00:44:32;;;;;;;1.00;1.00;;;;;;;6.19;100.00;100761.22;5064902;28;20194;-88
2023/12/29 00:47:00;;;;;;;1.00;1.00;;;;;;;6.03;100.00;100764.81;5091793;28;20666;-86
2023/12/29 00:49:26;;;;;;;3.20;2.97;;;;;;;5.55;100.00;100714.63;5090138;28;20221;-85
2023/12/29 00:51:53;;;;;;;1.20;1.20;;;;;;;5.78;100.00;100767.97;5095370;28;20630;-84
2023/12/29 00:54:20;;;;;;;1.57;1.57;;;;;;;5.63;100.00;100771.56;5090945;28;20221;-88
2023/12/29 00:56:51;;;;;;;1.13;1.13;;;;;;;5.55;100.00;100752.31;5094944;28;20275;-82
2023/12/29 00:59:20;;;;;;;1.20;1.20;;;;;;;5.54;100.00;100760.84;5091686;28;20573;-85
2023/12/29 01:01:47;;;;;;;1.10;1.10;;;;;;;5.31;100.00;100744.38;5093249;28;20232;-81
2023/12/29 01:04:14;;;;;;;1.13;1.13;;;;;;;5.36;100.00;100751.47;5093553;28;20206;-84
2023/12/29 01:06:40;;;;;;;1.43;1.43;;;;;;;5.23;100.00;100753.41;5096662;28;20198;-84
2023/12/29 01:09:08;;;;;;;1.37;1.37;;;;;;;5.16;100.00;100759.06;5104931;28;20637;-84
2023/12/29 01:11:35;;;;;;;1.10;1.10;;;;;;;4.85;100.00;100719.06;5066986;28;20219;-85
2023/12/29 01:14:03;;;;;;;1.00;1.00;;;;;;;5.02;100.00;100740.44;5097451;28;20202;-83
2023/12/29 01:16:30;;;;;;;1.27;1.27;;;;;;;4.92;100.00;100735.66;5085027;28;20631;-83
2023/12/29 01:18:57;;;;;;;0.80;0.80;;;;;;;4.49;100.00;100659.09;5092448;28;20231;-84
2023/12/29 01:21:24;;;;;;;7.20;2.40;;;;;;;4.78;100.00;100709.28;5057211;28;20658;-84
2023/12/29 01:23:50;;;;;;;1.10;1.10;;;;;;;5.03;100.00;100737.03;5038419;28;20214;-83
2023/12/29 01:26:17;;;;;;;1.20;1.20;;;;;;;4.95;100.00;100697.28;5096719;28;20190;-83
2023/12/29 01:28:44;;;;;;;1.20;1.20;;;;;;;5.03;100.00;100702.78;5095465;28;20229;-85
2023/12/29 01:31:13;;;;;;;1.30;1.30;;;;;;;5.17;100.00;100682.03;5094558;28;20233;-84
2023/12/29 01:33:40;;;;;;;1.80;1.80;;;;;;;5.62;100.00;100702.91;5093719;28;20198;-85
2023/12/29 01:36:07;;;;;;;1.20;1.20;;;;;;;5.85;100.00;100707.41;5093849;28;20198;-84
2023/12/29 01:38:34;;;;;;;1.63;1.63;;;;;;;6.08;100.00;100701.56;5093933;28;20221;-84
2023/12/29 01:41:00;;;;;;;0.93;0.93;;;;;;;6.17;100.00;100690.78;5094775;28;20209;-84
2023/12/29 01:43:27;;;;;;;1.90;1.47;;;;;;;6.28;100.00;100680.09;5093612;28;20190;-82
2023/12/29 01:45:54;;;;;;;1.00;1.00;;;;;;;6.38;100.00;100671.97;5093681;28;20190;-84
2023/12/29 01:48:24;;;;;;;1.10;1.10;;;;;;;6.66;100.00;100667.91;5096970;28;20209;-84
2023/12/29 01:50:52;;;;;;;1.63;1.63;;;;;;;6.86;100.00;100672.13;5100291;28;20256;-82
2023/12/29 01:53:18;;;;;;;2.20;1.60;;;;;;;7.16;100.00;100665.59;5089873;28;20573;-82
2023/12/29 01:55:46;;;;;;;2.53;1.20;;;;;;;7.41;100.00;100669.97;5094329;28;20198;-85
2023/12/29 01:58:13;;;;;;;1.00;1.00;;;;;;;7.36;100.00;100676.66;5093429;28;20574;-84
2023/12/29 02:00:41;;;;;;;1.23;1.23;;;;;;;7.34;100.00;100684.34;5093569;28;20190;-86
2023/12/29 02:03:08;;;;;;;1.77;1.67;;;;;;;6.75;100.00;100694.03;5093018;28;20210;-85
2023/12/29 02:05:37;;;;;;;1.20;1.20;;;;;;;6.22;100.00;100700.44;5096279;28;20205;-86
2023/12/29 02:08:04;;;;;;;2.37;1.60;;;;;;;5.98;100.00;100681.41;5092954;28;20693;-84
2023/12/29 02:10:31;;;;;;;1.70;1.70;;;;;;;5.96;100.00;100701.03;5085495;28;20636;-82
2023/12/29 02:13:00;;;;;;;2.03;1.93;;;;;;;5.76;100.00;100691.53;5093366;28;20199;-81
2023/12/29 02:15:27;;;;;;;1.00;1.00;;;;;;;5.62;100.00;100695.19;5091867;28;20210;-81
2023/12/29 02:18:01;;;;;;;1.67;1.57;;;;;;;5.53;100.00;100692.22;5093235;28;20206;-81
2023/12/29 02:20:28;;;;;;;1.00;1.00;;;;;;;5.30;100.00;100668.94;5092994;28;20236;-83
2023/12/29 02:22:57;;;;;;;1.03;1.03;;;;;;;5.30;100.00;100686.94;5093043;28;20191;-82
2023/12/29 02:25:25;;;;;;;1.10;1.10;;;;;;;5.17;100.00;100694.00;5092675;28;20194;-82
2023/12/29 02:27:58;;;;;;;1.37;1.37;;;;;;;5.07;100.00;100689.22;5093396;28;20207;-82
2023/12/29 02:30:31;;;;;;;1.60;1.50;;;;;;;4.94;100.00;100693.81;5093212;28;20190;-83
2023/12/29 02:33:05;;;;;;;1.63;1.47;;;;;;;4.62;100.00;100675.09;5097994;28;20228;-82
2023/12/29 02:35:36;;;;;;;1.60;1.60;;;;;;;4.55;100.00;100681.66;5085085;28;20229;-82
2023/12/29 02:38:03;;;;;;;1.40;1.33;;;;;;;4.27;100.00;100645.16;5093238;28;20368;-83
2023/12/29 02:40:32;;;;;;;1.20;1.20;;;;;;;4.42;100.00;100680.16;5095271;28;20658;-82
2023/12/29 02:42:59;;;;;;;0.97;0.97;;;;;;;4.20;100.00;100654.25;5093444;28;20263;-80
2023/12/29 02:45:25;;;;;;;1.33;1.33;;;;;;;4.21;100.00;100673.97;5092807;28;21860;-82
2023/12/29 02:47:52;;;;;;;2.90;2.80;;;;;;;4.28;100.00;100681.16;5093043;28;20217;-82
2023/12/29 02:50:19;;;;;;;1.00;1.00;;;;;;;4.16;100.00;100672.88;5092676;28;20581;-82
2023/12/29 02:52:46;;;;;;;1.10;1.10;;;;;;;4.08;100.00;100640.81;5092667;28;20303;-82
2023/12/29 02:55:13;;;;;;;1.70;1.70;;;;;;;4.18;100.00;100645.59;5092238;28;20206;-82
2023/12/29 02:57:41;;;;;;;1.57;1.57;;;;;;;4.34;100.00;100658.38;5095050;28;20221;-82
2023/12/29 03:00:08;;;;;;;1.43;1.43;;;;;;;4.34;100.00;100652.38;5040112;28;20194;-82
2023/12/29 03:02:35;;;;;;;2.67;2.47;;;;;;;4.32;100.00;100644.56;5099024;28;20199;-84
2023/12/29 03:05:03;;;;;;;1.00;1.00;;;;;;;4.05;100.00;100579.09;5047140;28;20225;-82
2023/12/29 03:07:29;;;;;;;1.07;1.07;;;;;;;4.32;100.00;100641.13;5101910;28;20667;-83
2023/12/29 03:09:56;;;;;;;1.20;1.20;;;;;;;4.27;100.00;100617.81;5098499;28;20606;-84
2023/12/29 03:12:23;;;;;;;0.90;0.90;;;;;;;4.41;100.00;100642.47;5095277;28;20233;-83
2023/12/29 03:14:51;;;;;;;1.77;1.77;;;;;;;4.48;100.00;100649.66;5089301;28;20648;-84
2023/12/29 03:17:18;;;;;;;6.00;3.13;;;;;;;4.42;100.00;100649.34;5096683;28;20205;-84
2023/12/29 03:19:44;;;;;;;1.07;1.07;;;;;;;4.45;100.00;100641.81;5098280;28;20205;-83
2023/12/29 03:22:11;;;;;;;1.20;1.20;;;;;;;4.40;100.00;100629.53;5099687;28;20198;-84
2023/12/29 03:24:38;;;;;;;1.20;1.20;;;;;;;4.18;100.00;100586.56;5096281;28;20740;-85
2023/12/29 03:27:05;;;;;;;2.17;2.07;;;;;;;4.39;100.00;100622.66;5093442;28;20637;-84
2023/12/29 03:29:32;;;;;;;1.67;1.67;;;;;;;4.29;100.00;100623.00;5092962;28;20194;-85
2023/12/29 03:32:00;;;;;;;1.20;1.20;;;;;;;4.24;100.00;100620.25;5093471;28;20230;-85
2023/12/29 03:34:27;;;;;;;2.13;2.13;;;;;;;4.33;100.00;100617.22;5092669;28;20233;-85
2023/12/29 03:36:54;;;;;;;1.40;1.40;;;;;;;4.40;100.00;100614.16;5097637;28;20209;-85
2023/12/29 03:39:20;;;;;;;2.87;2.73;;;;;;;4.46;100.00;100614.44;5092254;28;20559;-84
2023/12/29 03:41:47;;;;;;;1.20;1.20;;;;;;;4.55;100.00;100606.28;5093510;28;20202;-85
2023/12/29 03:44:15;;;;;;;6.73;1.40;;;;;;;4.62;100.00;100610.91;5093135;28;20209;-83
2023/12/29 03:46:41;;;;;;;1.70;1.70;;;;;;;4.66;100.00;100605.13;5094388;28;20198;-82
2023/12/29 03:49:10;;;;;;;1.83;1.73;;;;;;;4.78;100.00;100608.25;5062056;28;20202;-83
2023/12/29 03:51:36;;;;;;;1.67;1.67;;;;;;;4.70;100.00;100605.34;5100635;28;20764;-82
2023/12/29 03:54:03;;;;;;;1.57;1.57;;;;;;;4.67;100.00;100600.06;5099662;28;20670;-83
2023/12/29 03:56:30;;;;;;;5.60;1.70;;;;;;;4.84;100.00;100613.69;5096745;28;20218;-85
2023/12/29 03:58:57;;;;;;;1.77;1.77;;;;;;;4.94;100.00;100610.72;5093858;28;20213;-85
2023/12/29 04:01:25;;;;;;;1.37;1.37;;;;;;;5.02;100.00;100614.53;5091268;28;20198;-83
2023/12/29 04:03:52;;;;;;;1.10;1.10;;;;;;;5.09;100.00;100616.56;5097831;28;20193;-82
2023/12/29 04:06:20;;;;;;;1.27;1.27;;;;;;;5.25;100.00;100603.56;5091039;28;20654;-83
2023/12/29 04:08:47;;;;;;;1.67;1.63;;;;;;;5.21;100.00;100604.22;5055979;28;20670;-83
2023/12/29 04:11:13;;;;;;;1.30;1.30;;;;;;;5.24;100.00;100594.13;5037814;28;20203;-84
2023/12/29 04:13:40;;;;;;;1.77;1.67;;;;;;;5.27;100.00;100601.97;5091605;28;20190;-83
2023/12/29 04:16:07;;;;;;;1.00;1.00;;;;;;;5.05;100.00;100546.97;5091429;28;20670;-81
2023/12/29 04:18:34;;;;;;;1.40;1.40;;;;;;;5.37;100.00;100596.41;5055326;28;20193;-83
2023/12/29 04:21:00;;;;;;;1.20;1.20;;;;;;;5.28;100.00;100574.56;5038270;28;20209;-83
2023/12/29 04:23:29;;;;;;;0.97;0.97;;;;;;;5.46;100.00;100594.22;5090444;28;20251;-82
2023/12/29 04:25:55;;;;;;;1.27;1.27;;;;;;;5.44;100.00;100603.56;5091575;28;20681;-83
2023/12/29 04:28:22;;;;;;;1.33;1.30;;;;;;;5.48;100.00;100592.59;5095786;28;20217;-82
2023/12/29 04:30:49;;;;;;;0.90;0.90;;;;;;;5.54;100.00;100591.09;5089389;28;20584;-83
2023/12/29 04:33:16;;;;;;;1.83;1.83;;;;;;;5.55;100.00;100588.59;5091017;28;20691;-83
2023/12/29 04:35:42;;;;;;;1.00;1.00;;;;;;;5.37;100.00;100578.41;5087558;28;20233;-83
2023/12/29 04:38:09;;;;;;;1.10;1.10;;;;;;;5.40;100.00;100578.53;5090327;28;20205;-87
2023/12/29 04:40:38;;;;;;;1.50;1.50;;;;;;;5.55;100.00;100600.56;5098393;28;20201;-86
2023/12/29 04:43:05;;;;;;;1.53;1.43;;;;;;;5.40;100.00;100593.97;5093874;28;20194;-82
2023/12/29 04:45:32;;;;;;;1.67;1.67;;;;;;;5.37;100.00;100606.69;5091533;28;20194;-83
2023/12/29 04:47:58;;;;;;;2.77;2.67;;;;;;;5.30;100.00;100607.22;5090917;28;20194;-83
2023/12/29 04:50:25;;;;;;;1.00;1.00;;;;;;;5.21;100.00;100611.94;5090996;28;20283;-84
2023/12/29 04:52:52;;;;;;;1.67;1.60;;;;;;;4.81;100.00;100564.72;5090233;28;20222;-82
2023/12/29 04:55:19;;;;;;;1.63;1.63;;;;;;;4.83;100.00;100581.97;5091522;28;20592;-84
2023/12/29 04:57:47;;;;;;;0.83;0.83;;;;;;;5.03;100.00;100613.69;5089997;28;20194;-83
2023/12/29 05:00:15;;;;;;;1.67;1.60;;;;;;;4.77;100.00;100585.94;5038741;28;20206;-81
2023/12/29 05:02:41;;;;;;;1.33;1.33;;;;;;;4.79;100.00;100618.59;5065091;28;20209;-83
2023/12/29 05:05:09;;;;;;;1.07;1.07;;;;;;;4.80;100.00;100614.34;5094162;28;20201;-82
2023/12/29 05:07:36;;;;;;;1.90;1.73;;;;;;;4.61;100.00;100591.16;5100918;28;20190;-82
2023/12/29 05:10:03;;;;;;;1.67;1.57;;;;;;;4.67;100.00;100614.59;5098295;28;20224;-84
2023/12/29 05:12:30;;;;;;;1.47;1.47;;;;;;;4.44;100.00;100569.84;5097704;28;20241;-87
2023/12/29 05:14:58;;;;;;;1.40;1.40;;;;;;;4.77;100.00;100616.78;5041405;28;20206;-86
2023/12/29 05:17:25;;;;;;;1.20;1.20;;;;;;;4.59;100.00;100585.09;5095807;28;20198;-85
2023/12/29 05:19:51;;;;;;;1.33;1.33;;;;;;;4.75;100.00;100611.53;5096718;28;20576;-86
2023/12/29 05:22:18;;;;;;;1.53;1.53;;;;;;;4.78;100.00;100611.69;5094409;28;20220;-85
2023/12/29 05:24:45;;;;;;;1.53;1.53;;;;;;;4.71;100.00;100611.34;5060657;28;20194;-85
2023/12/29 05:27:12;;;;;;;1.00;1.00;;;;;;;4.77;100.00;100598.78;5047317;28;20226;-86
2023/12/29 05:29:39;;;;;;;1.40;1.40;;;;;;;4.92;100.00;100612.34;5093362;28;20198;-85
2023/12/29 05:32:08;;;;;;;1.40;1.40;;;;;;;5.05;100.00;100609.50;5096107;28;20225;-82
2023/12/29 05:34:35;;;;;;;1.10;1.10;;;;;;;5.06;100.00;100605.25;5094287;28;20251;-83
2023/12/29 05:37:02;;;;;;;1.40;1.40;;;;;;;5.17;100.00;100593.78;5095484;28;20197;-81
2023/12/29 05:39:29;;;;;;;1.40;1.40;;;;;;;5.33;100.00;100599.66;5037753;28;20201;-83
2023/12/29 05:41:55;;;;;;;1.20;1.20;;;;;;;4.85;100.00;100504.97;5095334;28;20637;-89
2023/12/29 05:44:22;;;;;;;1.17;1.17;;;;;;;5.49;100.00;100593.50;5075673;28;20216;-88
2023/12/29 05:46:49;;;;;;;1.83;1.73;;;;;;;5.53;100.00;100595.34;5096165;28;20206;-85
2023/12/29 05:49:17;;;;;;;1.57;1.57;;;;;;;5.51;100.00;100576.41;5106869;28;20198;-78
2023/12/29 05:51:45;;;;;;;1.10;1.10;;;;;;;5.61;100.00;100585.41;5100194;28;20194;-72
2023/12/29 05:54:12;;;;;;;3.10;2.70;;;;;;;6.02;100.00;100598.34;5100199;28;20194;-79
2023/12/29 05:56:39;;;;;;;1.23;1.23;;;;;;;6.26;100.00;100607.06;5049939;28;20194;-74
2023/12/29 05:59:05;;;;;;;1.43;1.43;;;;;;;6.45;100.00;100595.81;5093402;28;20198;-74
2023/12/29 06:01:32;;;;;;;1.63;1.63;;;;;;;6.55;100.00;100581.59;5096227;28;20583;-75
2023/12/29 06:03:59;;;;;;;2.67;2.47;;;;;;;6.59;100.00;100606.66;5091913;28;20647;-80
2023/12/29 06:06:27;;;;;;;2.03;1.93;;;;;;;6.63;100.00;100605.97;5093008;28;20213;-75
2023/12/29 06:08:55;;;;;;;1.20;1.20;;;;;;;6.60;100.00;100611.84;5099516;28;20201;-77
2023/12/29 06:11:22;;;;;;;1.80;1.70;;;;;;;6.57;100.00;100611.72;5092976;28;20216;-78
2023/12/29 06:13:49;;;;;;;2.03;1.90;;;;;;;6.61;100.00;100615.31;5093936;28;20226;-79
2023/12/29 06:16:19;;;;;;;1.10;1.10;;;;;;;6.67;100.00;100618.16;5093058;28;20198;-80
2023/12/29 06:18:47;;;;;;;1.00;1.00;;;;;;;6.60;100.00;100619.56;5096162;28;20228;-85
2023/12/29 06:21:14;;;;;;;1.10;1.10;;;;;;;6.55;100.00;100597.03;5093601;28;20204;-80
2023/12/29 06:23:42;;;;;;;1.10;1.10;;;;;;;6.77;100.00;100613.41;5097532;28;20204;-87
2023/12/29 06:26:15;;;;;;;1.10;1.10;;;;;;;6.59;100.00;100578.31;5061036;28;20200;-85
2023/12/29 06:28:42;;;;;;;1.20;1.20;;;;;;;6.59;100.00;100588.63;5090897;28;20248;-85
2023/12/29 06:31:09;;;;;;;2.80;2.60;;;;;;;6.97;100.00;100615.03;5092461;28;20601;-83
2023/12/29 06:33:36;;;;;;;1.13;1.13;;;;;;;7.04;100.00;100616.13;5095427;28;20222;-84
2023/12/29 06:36:03;;;;;;;2.27;2.17;;;;;;;7.11;100.00;100618.13;5093062;28;20201;-82
2023/12/29 06:38:30;;;;;;;1.13;1.13;;;;;;;7.09;100.00;100624.94;5092744;28;20205;-80
2023/12/29 06:40:59;;;;;;;5.23;2.03;;;;;;;7.56;100.00;100618.06;5093040;28;20202;-79
2023/12/29 06:43:25;;;;;;;2.00;1.47;;;;;;;7.28;100.00;100629.94;5092715;28;20205;-81
2023/12/29 06:45:52;;;;;;;2.40;2.30;;;;;;;7.03;100.00;100606.63;5094272;28;20197;-84
2023/12/29 06:48:19;;;;;;;1.90;1.80;;;;;;;7.20;100.00;100646.84;5094605;28;20594;-83
2023/12/29 06:50:46;;;;;;;1.53;1.50;;;;;;;7.38;100.00;100649.22;5093554;28;20725;-84
2023/12/29 06:53:13;;;;;;;1.50;1.50;;;;;;;7.29;100.00;100654.91;5093187;28;20226;-84
2023/12/29 06:55:40;;;;;;;4.73;4.33;;;;;;;7.42;100.00;100630.44;5094554;28;20194;-82
2023/12/29 06:58:08;;;;;;;1.33;1.33;;;;;;;7.16;100.00;100632.06;5092406;28;20198;-85
2023/12/29 07:00:35;;;;;;;4.07;2.53;;;;;;;7.10;100.00;100657.59;5094091;28;20198;-81
2023/12/29 07:03:02;;;;;;;3.17;2.97;;;;;;;6.88;100.00;100635.28;5093961;28;20198;-83
2023/12/29 07:05:29;;;;;;;1.10;1.10;;;;;;;6.79;100.00;100636.66;5092423;28;20566;-80
2023/12/29 07:07:56;;;;;;;1.97;1.93;;;;;;;6.69;100.00;100652.56;5041899;28;20224;-74
2023/12/29 07:10:22;;;;;;;2.50;1.60;;;;;;;6.56;100.00;100650.34;5102484;28;20202;-81
2023/12/29 07:12:50;;;;;;;1.40;1.40;;;;;;;6.48;100.00;100663.78;5101476;28;20226;-86
2023/12/29 07:15:18;;;;;;;3.50;3.20;;;;;;;6.49;100.00;100644.91;5104324;28;20662;-80
2023/12/29 07:17:45;;;;;;;1.50;1.40;;;;;;;6.47;100.00;100649.13;5097429;28;20191;-80
2023/12/29 07:20:12;;;;;;;2.13;2.03;;;;;;;6.58;100.00;100633.22;5071399;28;20214;-82
2023/12/29 07:22:39;;;;;;;2.37;2.27;;;;;;;6.43;100.00;100603.47;5093840;28;20320;-81
2023/12/29 07:25:07;;;;;;;2.07;1.97;;;;;;;6.77;100.00;100652.06;5093756;28;20194;-79
2023/12/29 07:27:33;;;;;;;8.87;2.53;;;;;;;6.64;100.00;100628.31;5089087;28;20201;-79
2023/12/29 07:30:00;;;;;;;3.27;2.97;;;;;;;7.28;100.00;100632.50;5093081;28;20213;-89
2023/12/29 07:32:28;;;;;;;2.40;2.30;;;;;;;7.13;100.00;100657.75;5094933;28;20267;-81
2023/12/29 07:34:56;;;;;;;1.70;1.70;;;;;;;6.95;100.00;100659.63;5093985;28;20333;-80
2023/12/29 07:37:22;;;;;;;1.67;1.67;;;;;;;6.80;100.00;100666.75;5092998;28;20923;-79
2023/12/29 07:39:49;;;;;;;2.33;2.27;;;;;;;6.46;100.00;100651.63;5091863;28;20218;-80
2023/12/29 07:42:17;;;;;;;1.87;1.87;;;;;;;6.39;100.00;100653.09;5090793;28;20201;-79
2023/12/29 07:44:44;;;;;;;1.57;1.57;;;;;;;6.32;100.00;100645.94;5054851;28;20233;-80
2023/12/29 07:47:11;;;;;;;6.33;2.30;;;;;;;6.47;100.00;100651.72;5088546;28;20721;-80
2023/12/29 07:49:42;;;;;;;1.07;1.07;;;;;;;6.57;100.00;100652.06;5082466;28;20736;-79
2023/12/29 07:52:09;;;;;;;1.23;1.23;;;;;;;6.72;100.00;100652.69;5090334;28;20205;-79
2023/12/29 07:54:36;;;;;;;1.23;1.23;;;;;;;6.75;100.00;100661.41;5091011;28;20201;-80
2023/12/29 07:57:03;;;;;;;1.57;1.57;;;;;;;6.91;100.00;100668.94;5082124;28;20202;-81
2023/12/29 07:59:29;;;;;;;1.30;1.30;;;;;;;7.08;100.00;100668.69;5091907;28;20293;-81
2023/12/29 08:01:57;;;;;;;1.13;1.13;;;;;;;7.20;100.00;100682.94;5092197;28;20198;-80
2023/12/29 08:04:24;;;;;;;1.50;1.50;;;;;;;7.25;100.00;100683.09;5078188;28;20255;-79
2023/12/29 08:06:52;;;;;;;1.03;1.03;;;;;;;7.29;100.00;100666.91;5040327;28;20277;-82
2023/12/29 08:09:19;;;;;;;1.37;1.37;;;;;;;7.12;100.00;100670.56;5090983;28;20194;-81
2023/12/29 08:11:46;;;;;;;1.53;1.43;;;;;;;7.17;100.00;100674.22;5091161;28;20202;-84
2023/12/29 08:14:13;;;;;;;2.83;2.60;;;;;;;7.22;100.00;100677.84;5090228;28;20237;-80
2023/12/29 08:16:40;;;;;;;2.30;1.40;;;;;;;7.37;100.00;100681.88;5087221;28;20213;-81
2023/12/29 08:19:08;;;;;;;1.67;1.57;;;;;;;7.44;100.00;100670.97;5087218;28;20677;-81
2023/12/29 08:21:35;;;;;;;1.43;1.43;;;;;;;7.52;100.00;100668.66;5090454;28;20202;-81
2023/12/29 08:24:03;;;;;;;1.33;1.33;;;;;;;7.64;100.00;100661.34;5090731;28;20210;-80
2023/12/29 08:26:30;;;;;;;4.87;1.60;;;;;;;7.94;100.00;100692.53;5073686;28;20238;-79
2023/12/29 08:28:57;;;;;;;3.23;3.03;;;;;;;8.11;100.00;100688.84;5080719;28;20217;-80
2023/12/29 08:31:26;;;;;;;1.83;1.77;;;;;;;8.27;100.00;100675.63;5077634;28;20698;-76
2023/12/29 08:33:53;;;;;;;1.73;1.47;;;;;;;8.16;100.00;100625.31;5092068;28;20241;-81
2023/12/29 08:36:21;;;;;;;1.33;1.33;;;;;;;8.80;100.00;100700.69;5092560;28;20205;-81
2023/12/29 08:38:48;;;;;;;1.52;1.42;;;;;;;8.78;100.00;100696.25;5092498;28;20208;-78
2023/12/29 08:41:18;;;;;;;2.42;1.85;;;;;;;9.00;100.00;100713.34;5091193;28;20194;-79
2023/12/29 08:43:44;;;;;;;1.02;1.02;;;;;;;9.07;100.00;100705.81;5088654;28;20381;-79
2023/12/29 08:46:11;;;;;;;1.65;1.55;;;;;;;9.06;100.00;100685.94;5094928;28;20225;-77
2023/12/29 08:48:38;;;;;;;1.35;1.35;;;;;;;9.43;100.00;100699.16;5086396;28;20690;-75
2023/12/29 08:51:06;;;;;;;4.88;2.53;;;;;;;9.54;100.00;100683.06;5088607;28;20240;-84
2023/12/29 08:53:35;;;;;;;1.17;1.17;;;;;;;9.77;100.00;100679.44;5094046;28;20308;-80
2023/12/29 08:56:02;;;;;;;1.83;1.73;;;;;;;10.23;100.00;100689.34;5094166;28;20289;-75
2023/12/29 08:58:31;;;;;;;1.67;1.65;;;;;;;10.48;100.00;100702.09;5094242;28;20247;-80
2023/12/29 09:00:57;;;;;;;1.55;1.55;;;;;;;10.59;100.00;100702.34;5090170;28;20202;-78
2023/12/29 09:03:24;;;;;;;1.00;1.00;;;;;;;10.68;99.55;100699.97;5094083;28;20209;-80
2023/12/29 09:05:51;;;;;;;1.88;1.88;;;;;;;10.43;98.55;100657.00;5094880;28;20214;-82
2023/12/29 09:08:18;;;;;;;2.40;2.30;;;;;;;10.84;97.19;100684.78;5085158;28;20571;-83
2023/12/29 09:10:45;;;;;;;1.33;1.33;;;;;;;11.22;94.64;100698.66;5090537;28;20668;-82
2023/12/29 09:13:11;;;;;;;1.30;1.30;;;;;;;11.31;93.36;100691.06;5091509;28;20226;-77
2023/12/29 09:15:39;;;;;;;1.00;1.00;;;;;;;11.58;91.51;100706.38;5087928;28;20206;-79
2023/12/29 09:18:07;;;;;;;1.25;1.25;;;;;;;11.51;91.13;100693.22;5090121;28;20869;-80
2023/12/29 09:20:33;;;;;;;1.85;1.52;;;;;;;11.58;91.00;100701.19;5089714;28;20265;-78
2023/12/29 09:23:00;;;;;;;1.88;1.77;;;;;;;11.63;91.19;100694.34;5087290;28;20203;-79
2023/12/29 09:25:27;;;;;;;3.28;3.08;;;;;;;11.75;90.02;100693.75;5093133;28;20735;-77
2023/12/29 09:27:54;;;;;;;2.10;2.00;;;;;;;11.91;89.42;100707.06;5094328;28;20597;-77
2023/12/29 09:30:21;;;;;;;1.10;1.10;;;;;;;11.88;89.13;100688.81;5093398;28;20194;-78
2023/12/29 09:32:49;;;;;;;1.98;1.88;;;;;;;12.05;88.69;100699.56;5038256;28;20671;-78
2023/12/29 09:35:17;;;;;;;1.30;1.30;;;;;;;12.04;87.83;100677.00;5092713;28;20241;-79
2023/12/29 09:37:43;;;;;;;1.40;1.10;;;;;;;12.15;87.47;100698.88;5094061;28;20206;-78
2023/12/29 09:40:12;;;;;;;0.70;0.70;;;;;;;12.19;87.81;100695.47;5093109;28;20191;-77
2023/12/29 09:42:40;;;;;;;1.42;1.38;;;;;;;12.27;86.94;100675.69;5092665;28;20210;-77
2023/12/29 09:45:11;;;;;;;1.48;1.40;;;;;;;12.10;85.98;100627.72;5069946;28;20208;-80
2023/12/29 09:47:40;;;;;;;1.90;1.80;;;;;;;12.35;84.84;100652.41;5088902;28;20620;-78
2023/12/29 09:50:12;;;;;;;1.45;1.45;;;;;;;12.51;84.21;100675.25;5093164;28;20717;-81
2023/12/29 09:52:40;;;;;;;1.25;1.25;;;;;;;12.61;83.55;100681.47;5090349;28;20246;-79
2023/12/29 09:55:10;;;;;;;1.27;1.27;;;;;;;12.66;83.26;100678.09;5094618;28;20234;-82
2023/12/29 09:57:38;;;;;;;1.10;1.10;;;;;;;12.75;82.34;100675.63;5093332;28;20226;-85
2023/12/29 10:00:06;;;;;;;1.40;1.40;;;;;;;12.73;82.13;100676.47;5093044;28;20198;-87
2023/12/29 10:02:33;;;;;;;1.00;1.00;;;;;;;12.82;81.86;100671.38;5041875;28;20202;-82
2023/12/29 10:05:03;;;;;;;1.13;1.13;;;;;;;12.90;81.57;100669.78;5094922;28;20213;-82
2023/12/29 10:07:36;;;;;;;4.55;1.35;;;;;;;13.00;80.97;100658.66;5097095;28;20201;-83
2023/12/29 10:10:06;;;;;;;1.23;1.23;;;;;;;13.10;80.61;100651.88;5091729;28;20263;-85
2023/12/29 10:12:34;;;;;;;2.75;1.00;;;;;;;13.15;79.36;100647.63;5092869;28;20198;-85
2023/12/29 10:15:09;;;;;;;1.60;1.50;;;;;;;13.23;78.84;100641.66;5093349;28;20302;-82
2023/12/29 10:17:48;;;;;;;0.98;0.98;;;;;;;13.33;77.87;100640.03;5095404;28;20273;-85
2023/12/29 10:20:31;;;;;;;1.40;1.30;;;;;;;13.20;77.32;100576.50;5094401;28;20198;-85
2023/12/29 10:23:08;;;;;;;0.73;0.73;;;;;;;13.47;77.31;100616.75;5094464;28;20190;-86
2023/12/29 10:25:35;;;;;;;0.70;0.70;;;;;;;13.47;76.66;100614.16;5095541;28;20212;-84
2023/12/29 10:28:02;;;;;;;3.30;2.28;;;;;;;13.62;75.38;100619.56;5092582;28;20209;-87
2023/12/29 10:30:31;;;;;;;1.25;1.17;;;;;;;13.59;75.26;100609.09;5061337;28;20202;-85
2023/12/29 10:33:00;;;;;;;1.45;1.35;;;;;;;13.66;75.07;100613.53;5076745;28;20694;-84
2023/12/29 10:35:27;;;;;;;5.22;2.47;;;;;;;13.85;74.08;100613.72;5094734;28;20246;-85
2023/12/29 10:37:54;;;;;;;0.77;0.77;;;;;;;13.78;74.06;100608.41;5095275;28;20650;-88
2023/12/29 10:40:22;;;;;;;4.20;3.78;;;;;;;13.97;73.92;100626.00;5094549;28;20276;-83
2023/12/29 10:42:53;;;;;;;3.47;2.03;;;;;;;14.00;72.44;100605.19;5094149;28;20198;-85
2023/12/29 10:45:20;;;;;;;1.17;1.17;;;;;;;14.02;72.25;100597.38;5089506;28;20208;-86
2023/12/29 10:47:47;;;;;;;4.13;2.53;;;;;;;14.08;71.56;100602.66;5092444;28;20206;-86
2023/12/29 10:50:13;;;;;;;6.85;3.25;;;;;;;13.95;70.99;100562.53;5094016;28;20230;-87
2023/12/29 10:52:42;;;;;;;2.80;2.58;;;;;;;14.23;71.16;100593.19;5095109;28;20206;-87
2023/12/29 10:55:10;;;;;;;1.27;1.17;;;;;;;14.21;71.49;100589.72;5093848;28;20230;-86
2023/12/29 10:57:39;;;;;;;1.38;1.17;;;;;;;14.32;70.83;100589.81;5093704;28;20654;-79
2023/12/29 11:00:08;;;;;;;3.00;2.60;;;;;;;14.36;70.58;100582.06;5093664;28;20210;-75
2023/12/29 11:02:35;;;;;;;19.10;2.10;;;;;;;14.22;70.55;100564.50;5093332;28;20639;-79
2023/12/29 11:05:04;;;;;;;1.52;1.52;;;;;;;14.19;70.37;100549.72;5093519;28;20210;-82
2023/12/29 11:07:38;;;;;;;4.28;3.50;;;;;;;14.46;69.96;100569.06;5078059;28;20641;-79
2023/12/29 11:10:07;;;;;;;2.05;1.98;;;;;;;14.33;70.28;100557.66;5094251;28;20659;-79
2023/12/29 11:12:36;;;;;;;0.70;0.70;;;;;;;14.40;69.83;100543.81;5094519;28;20577;-83
2023/12/29 11:15:06;;;;;;;1.27;1.23;;;;;;;14.58;71.30;100574.38;5092851;28;20627;-77
2023/12/29 11:17:36;;;;;;;1.00;1.00;;;;;;;14.83;73.48;100560.63;5092323;28;20201;-82
2023/12/29 11:20:05;;;;;;;0.90;0.90;;;;;;;13.81;70.75;100415.56;5092718;28;20251;-77
2023/12/29 11:22:33;;;;;;;0.90;0.90;;;;;;;14.73;70.26;100557.06;5090885;28;20303;-82
2023/12/29 11:25:00;;;;;;;1.85;1.35;;;;;;;14.74;69.32;100539.66;5097697;28;20237;-77